Time;durP1;ratioP1;P1;durP2;ratioP2;P2;SDS_P1;SDS_P2;PMS_P1;PMS_P2;Temp;Humidity;BMP_temperature;BMP_pressure;BME280_temperature;BME280_humidity;BME280_pressure;Samples;Min_cycle;Max_cycle;Signal;HPM_P1;HPM_P2
2023/12/15 00:01:14;;;;;;;12.68;8.10;;;0.80;99.90;;;;;;4999702;28;20034;-55
2023/12/15 00:03:40;;;;;;;15.35;9.50;;;0.80;99.90;;;;;;5006339;28;20486;-53
2023/12/15 00:06:06;;;;;;;12.93;8.50;;;0.80;99.90;;;;;;5001229;28;20029;-54
2023/12/15 00:08:31;;;;;;;11.93;7.80;;;0.80;99.90;;;;;;5003062;28;20045;-54
2023/12/15 00:10:57;;;;;;;14.73;8.65;;;0.80;99.90;;;;;;5005664;28;20037;-56
2023/12/15 00:13:23;;;;;;;13.65;9.48;;;0.90;99.90;;;;;;5002931;28;20034;-53
2023/12/15 00:15:48;;;;;;;14.80;9.45;;;0.80;99.90;;;;;;5002714;28;20025;-57
2023/12/15 00:18:14;;;;;;;12.27;8.35;;;0.90;99.90;;;;;;5003184;28;20165;-55
2023/12/15 00:20:39;;;;;;;11.98;8.43;;;0.90;99.90;;;;;;5003535;28;20080;-55
2023/12/15 00:23:05;;;;;;;13.85;9.18;;;0.90;99.90;;;;;;5005117;28;20114;-52
2023/12/15 00:25:31;;;;;;;15.68;8.43;;;0.90;99.90;;;;;;5003912;28;20038;-53
2023/12/15 00:27:56;;;;;;;11.95;8.05;;;1.00;99.90;;;;;;5003350;28;20133;-55
2023/12/15 00:30:22;;;;;;;12.27;8.35;;;0.90;99.90;;;;;;5005246;28;20034;-55
2023/12/15 00:32:47;;;;;;;15.55;10.07;;;1.00;99.90;;;;;;5004467;28;20026;-58
2023/12/15 00:35:13;;;;;;;15.82;9.63;;;1.00;99.90;;;;;;5004057;28;20030;-55
2023/12/15 00:37:38;;;;;;;15.10;9.82;;;1.00;99.90;;;;;;5003412;28;20034;-58
2023/12/15 00:40:04;;;;;;;16.45;9.20;;;1.00;99.90;;;;;;5004341;28;20791;-53
2023/12/15 00:42:30;;;;;;;14.35;10.00;;;1.00;99.90;;;;;;5003186;28;20038;-56
2023/12/15 00:44:56;;;;;;;17.25;9.85;;;1.00;99.90;;;;;;5002031;28;20037;-56
2023/12/15 00:47:22;;;;;;;13.10;8.90;;;1.00;99.90;;;;;;5002326;28;20800;-55
2023/12/15 00:49:47;;;;;;;15.52;9.63;;;1.00;99.90;;;;;;5002651;28;20106;-56
2023/12/15 00:52:13;;;;;;;18.45;9.38;;;1.00;99.90;;;;;;5002241;28;20442;-54
2023/12/15 00:54:39;;;;;;;15.18;10.18;;;1.10;99.90;;;;;;5002625;28;20037;-52
2023/12/15 00:57:04;;;;;;;14.77;9.48;;;1.10;99.90;;;;;;5001657;28;20474;-55
2023/12/15 00:59:30;;;;;;;14.95;8.88;;;1.10;99.90;;;;;;5000115;28;20038;-58
2023/12/15 01:01:56;;;;;;;16.02;9.63;;;1.10;99.90;;;;;;5002187;28;20435;-57
2023/12/15 01:04:21;;;;;;;15.13;10.20;;;1.10;99.90;;;;;;4999215;28;20172;-57
2023/12/15 01:06:47;;;;;;;16.85;10.57;;;1.10;99.90;;;;;;5000113;28;20590;-56
2023/12/15 01:09:12;;;;;;;18.55;10.27;;;1.20;99.90;;;;;;5003613;28;20137;-52
2023/12/15 01:11:38;;;;;;;16.85;10.35;;;1.20;99.90;;;;;;5001405;28;20030;-58
2023/12/15 01:14:04;;;;;;;17.88;10.77;;;1.20;99.90;;;;;;5001750;28;20034;-58
2023/12/15 01:16:29;;;;;;;17.98;10.65;;;1.20;99.90;;;;;;5001802;28;20129;-58
2023/12/15 01:18:55;;;;;;;17.13;9.68;;;1.30;99.90;;;;;;4998787;28;20644;-56
2023/12/15 01:21:20;;;;;;;17.55;10.15;;;1.30;99.90;;;;;;4999329;28;20044;-58
2023/12/15 01:23:46;;;;;;;17.05;9.13;;;1.30;99.90;;;;;;4999606;28;20181;-57
2023/12/15 01:26:12;;;;;;;18.55;10.25;;;1.30;99.90;;;;;;5000305;28;20037;-58
2023/12/15 01:28:37;;;;;;;18.60;9.75;;;1.30;99.90;;;;;;4999263;28;20092;-57
2023/12/15 01:31:03;;;;;;;19.80;10.60;;;1.30;99.90;;;;;;4993229;28;20157;-56
2023/12/15 01:33:29;;;;;;;21.45;11.68;;;1.30;99.90;;;;;;5003354;28;20026;-57
2023/12/15 01:35:55;;;;;;;17.05;10.35;;;1.40;99.90;;;;;;4999969;28;20515;-58
2023/12/15 01:38:21;;;;;;;15.68;10.00;;;1.40;99.90;;;;;;5000390;28;20442;-58
2023/12/15 01:40:47;;;;;;;18.30;10.90;;;1.40;99.90;;;;;;4995857;28;20117;-56
2023/12/15 01:43:12;;;;;;;17.90;10.70;;;1.40;99.90;;;;;;5000980;28;20095;-57
2023/12/15 01:45:38;;;;;;;16.98;10.65;;;1.50;99.90;;;;;;5000054;28;20026;-55
2023/12/15 01:48:05;;;;;;;20.13;11.15;;;1.50;99.90;;;;;;4999291;28;20038;-56
2023/12/15 01:50:30;;;;;;;19.27;10.98;;;1.50;99.90;;;;;;5000061;28;20041;-54
2023/12/15 01:52:56;;;;;;;20.08;10.95;;;1.50;99.90;;;;;;4999465;28;20087;-58
2023/12/15 01:55:21;;;;;;;18.85;11.70;;;1.60;99.90;;;;;;5000614;28;20436;-56
2023/12/15 01:57:47;;;;;;;19.80;11.65;;;1.60;99.90;;;;;;4997820;28;20057;-58
2023/12/15 02:00:13;;;;;;;17.70;11.00;;;1.70;99.90;;;;;;4999269;28;20586;-55
2023/12/15 02:02:38;;;;;;;23.70;12.68;;;1.70;99.90;;;;;;4999565;28;20033;-56
2023/12/15 02:05:04;;;;;;;20.85;11.48;;;1.70;99.90;;;;;;5001173;28;20482;-57
2023/12/15 02:07:30;;;;;;;22.30;11.73;;;1.70;99.90;;;;;;4999828;28;20559;-58
2023/12/15 02:09:58;;;;;;;18.67;11.35;;;1.70;99.90;;;;;;5002703;28;20041;-57
2023/12/15 02:12:24;;;;;;;23.33;12.30;;;1.80;99.90;;;;;;5000869;28;20034;-56
2023/12/15 02:14:49;;;;;;;20.92;10.68;;;1.80;99.90;;;;;;4999973;28;20163;-59
2023/12/15 02:17:15;;;;;;;24.27;13.98;;;1.80;99.90;;;;;;5001246;28;20041;-56
2023/12/15 02:19:41;;;;;;;21.58;12.00;;;1.90;99.90;;;;;;5000612;28;20118;-55
2023/12/15 02:22:06;;;;;;;20.00;11.65;;;1.90;99.90;;;;;;4999100;28;20088;-53
2023/12/15 02:24:32;;;;;;;19.75;11.27;;;1.90;99.90;;;;;;5001409;28;20038;-57
2023/12/15 02:26:58;;;;;;;23.23;12.57;;;1.90;99.90;;;;;;5000545;28;20120;-59
2023/12/15 02:29:26;;;;;;;20.63;11.70;;;1.90;99.90;;;;;;5000431;28;20062;-57
2023/12/15 02:31:52;;;;;;;19.23;11.77;;;2.00;99.90;;;;;;4997111;28;20026;-58
2023/12/15 02:34:17;;;;;;;18.15;11.07;;;2.00;99.90;;;;;;5000113;28;20040;-58
2023/12/15 02:36:43;;;;;;;20.70;12.07;;;2.00;99.90;;;;;;4996348;28;20026;-57
2023/12/15 02:39:09;;;;;;;20.95;11.38;;;2.00;99.90;;;;;;5000282;28;20493;-55
2023/12/15 02:41:34;;;;;;;18.08;11.25;;;2.00;99.90;;;;;;5000658;28;20083;-55
2023/12/15 02:44:00;;;;;;;17.50;11.30;;;2.10;99.90;;;;;;5000787;28;20030;-55
2023/12/15 02:46:26;;;;;;;20.35;11.77;;;2.10;99.90;;;;;;4999645;28;20533;-58
2023/12/15 02:48:51;;;;;;;23.80;12.18;;;2.10;99.90;;;;;;4999689;28;20122;-55
2023/12/15 02:51:27;;;;;;;22.75;12.20;;;2.10;99.90;;;;;;5001590;28;20037;-56
2023/12/15 02:53:53;;;;;;;18.85;12.00;;;2.20;99.90;;;;;;4999557;28;20173;-56
2023/12/15 02:56:18;;;;;;;22.30;11.63;;;2.20;99.90;;;;;;5002097;28;20117;-58
2023/12/15 02:58:44;;;;;;;19.10;10.95;;;2.20;99.90;;;;;;5001283;28;20033;-57
2023/12/15 03:01:09;;;;;;;20.80;11.30;;;2.20;99.90;;;;;;5003127;28;20140;-56
2023/12/15 03:03:36;;;;;;;21.98;12.23;;;2.20;99.90;;;;;;5003409;28;20552;-57
2023/12/15 03:06:02;;;;;;;21.20;12.13;;;2.30;99.90;;;;;;4999703;28;20133;-56
2023/12/15 03:08:27;;;;;;;21.75;11.90;;;2.30;99.90;;;;;;5001205;28;20101;-57
2023/12/15 03:10:57;;;;;;;23.27;12.35;;;2.30;99.90;;;;;;5004281;28;20029;-56
2023/12/15 03:13:28;;;;;;;21.02;12.18;;;2.30;99.90;;;;;;5004148;28;20108;-53
2023/12/15 03:15:54;;;;;;;21.75;12.82;;;2.40;99.90;;;;;;5003464;28;20039;-58
2023/12/15 03:18:19;;;;;;;24.73;12.80;;;2.30;99.90;;;;;;5002765;28;20105;-57
2023/12/15 03:20:45;;;;;;;25.70;13.45;;;2.40;99.90;;;;;;5002716;28;20113;-55
2023/12/15 03:23:10;;;;;;;24.17;13.02;;;2.40;99.90;;;;;;5003570;28;20092;-58
2023/12/15 03:25:36;;;;;;;22.70;13.20;;;2.40;99.90;;;;;;5005272;28;20034;-57
2023/12/15 03:28:02;;;;;;;21.65;12.73;;;2.50;99.90;;;;;;5003603;28;20113;-54
2023/12/15 03:30:27;;;;;;;23.23;12.25;;;2.50;99.90;;;;;;5004675;28;20026;-56
2023/12/15 03:32:53;;;;;;;23.02;13.40;;;2.50;99.90;;;;;;5002558;28;20026;-55
2023/12/15 03:35:19;;;;;;;20.73;12.48;;;2.50;99.90;;;;;;5005542;28;20034;-58
2023/12/15 03:37:45;;;;;;;21.10;11.63;;;2.50;99.90;;;;;;5000397;28;20025;-57
2023/12/15 03:40:11;;;;;;;19.35;12.40;;;2.50;99.90;;;;;;5005483;28;20141;-56
2023/12/15 03:42:37;;;;;;;24.98;14.43;;;2.50;99.90;;;;;;5004901;28;20042;-59
2023/12/15 03:45:04;;;;;;;22.27;13.00;;;2.50;99.90;;;;;;5005395;28;20037;-57
2023/12/15 03:47:29;;;;;;;22.05;13.02;;;2.50;99.90;;;;;;5004112;28;20026;-54
2023/12/15 03:49:55;;;;;;;21.02;12.75;;;2.60;99.90;;;;;;5002143;28;20517;-57
2023/12/15 03:52:20;;;;;;;22.70;13.18;;;2.60;99.90;;;;;;5005029;28;20044;-55
2023/12/15 03:54:46;;;;;;;25.58;14.35;;;2.60;99.90;;;;;;5005512;28;20563;-55
2023/12/15 03:57:11;;;;;;;27.20;13.93;;;2.60;99.90;;;;;;5003158;28;20108;-57
2023/12/15 03:59:40;;;;;;;24.23;13.30;;;2.60;99.90;;;;;;5003663;28;20030;-56
2023/12/15 04:02:11;;;;;;;25.70;14.27;;;2.70;99.90;;;;;;5002585;28;20249;-57
2023/12/15 04:04:36;;;;;;;30.02;14.82;;;2.70;99.90;;;;;;5005231;28;20022;-57
2023/12/15 04:07:02;;;;;;;24.95;15.07;;;2.70;99.90;;;;;;4999766;28;20079;-56
2023/12/15 04:09:28;;;;;;;27.02;14.65;;;2.70;99.90;;;;;;5000186;28;20084;-58
2023/12/15 04:11:53;;;;;;;28.52;12.73;;;2.70;99.90;;;;;;5002965;28;20026;-58
2023/12/15 04:14:19;;;;;;;25.70;14.50;;;2.70;99.90;;;;;;5003559;28;20041;-61
2023/12/15 04:16:44;;;;;;;29.02;14.45;;;2.70;99.90;;;;;;5003996;28;20027;-58
2023/12/15 04:19:10;;;;;;;29.63;14.38;;;2.70;99.90;;;;;;5001994;28;20029;-59
2023/12/15 04:21:35;;;;;;;27.10;14.18;;;2.70;99.90;;;;;;5001477;28;20033;-57
2023/12/15 04:24:01;;;;;;;25.67;12.98;;;2.70;99.90;;;;;;5003193;28;20186;-59
2023/12/15 04:26:26;;;;;;;24.52;14.57;;;2.80;99.90;;;;;;5001486;28;20870;-59
2023/12/15 04:28:53;;;;;;;29.10;14.30;;;2.80;99.90;;;;;;5002333;28;20116;-59
2023/12/15 04:31:18;;;;;;;23.15;14.15;;;2.80;99.90;;;;;;5022044;23;20060;-51
2023/12/15 04:33:44;;;;;;;24.25;13.75;;;2.80;99.90;;;;;;5021800;28;20048;-55
2023/12/15 04:36:10;;;;;;;27.88;14.65;;;2.80;99.90;;;;;;5015516;28;20049;-54
2023/12/15 04:38:36;;;;;;;29.88;14.57;;;2.80;99.90;;;;;;5016046;28;20517;-59
2023/12/15 04:41:02;;;;;;;25.83;13.77;;;2.90;99.90;;;;;;5020738;28;20034;-58
2023/12/15 04:43:28;;;;;;;26.92;15.02;;;2.90;99.90;;;;;;5019233;28;20040;-48
2023/12/15 04:45:55;;;;;;;26.30;13.43;;;2.90;99.90;;;;;;5021029;28;20036;-52
2023/12/15 04:48:20;;;;;;;24.25;14.07;;;2.90;99.90;;;;;;5019811;28;20100;-52
2023/12/15 04:50:46;;;;;;;28.90;14.80;;;2.90;99.90;;;;;;5018468;28;20472;-57
2023/12/15 04:53:11;;;;;;;33.38;14.98;;;2.90;99.90;;;;;;5021120;28;20049;-53
2023/12/15 04:55:37;;;;;;;31.33;15.52;;;2.90;99.90;;;;;;5020755;28;20028;-54
2023/12/15 04:58:03;;;;;;;28.65;15.57;;;2.90;99.90;;;;;;5018417;28;20117;-55
2023/12/15 05:00:28;;;;;;;29.45;15.82;;;3.00;99.90;;;;;;5020430;28;20486;-48
2023/12/15 05:02:54;;;;;;;28.27;15.32;;;3.00;99.90;;;;;;5017189;28;20032;-52
2023/12/15 05:05:19;;;;;;;31.20;16.13;;;3.00;99.90;;;;;;5022812;28;20056;-55
2023/12/15 05:07:45;;;;;;;27.25;15.18;;;3.10;99.90;;;;;;5016571;28;20022;-58
2023/12/15 05:10:11;;;;;;;30.52;16.55;;;3.00;99.90;;;;;;5020628;28;20592;-53
2023/12/15 05:12:37;;;;;;;31.95;16.50;;;3.10;99.90;;;;;;5017826;28;20021;-52
2023/12/15 05:15:04;;;;;;;28.48;14.95;;;3.10;99.90;;;;;;5018602;28;20104;-54
2023/12/15 05:17:30;;;;;;;27.63;16.08;;;3.10;99.90;;;;;;5016864;28;20029;-50
2023/12/15 05:20:01;;;;;;;31.05;17.38;;;3.10;99.90;;;;;;5022302;28;20040;-58
2023/12/15 05:22:27;;;;;;;30.55;15.45;;;3.10;99.90;;;;;;5020801;28;20026;-56
2023/12/15 05:24:53;;;;;;;35.80;16.45;;;3.10;99.90;;;;;;5025097;28;20021;-50
2023/12/15 05:27:18;;;;;;;29.42;16.23;;;3.10;99.90;;;;;;5018985;28;20243;-51
2023/12/15 05:29:45;;;;;;;31.90;17.67;;;3.10;99.90;;;;;;5019700;28;20503;-51
2023/12/15 05:32:12;;;;;;;28.13;16.17;;;3.10;99.90;;;;;;5017270;28;20036;-57
2023/12/15 05:34:38;;;;;;;32.28;17.30;;;3.10;99.90;;;;;;5017257;28;20021;-52
2023/12/15 05:37:04;;;;;;;29.27;15.52;;;3.10;99.90;;;;;;5015167;28;20036;-54
2023/12/15 05:39:29;;;;;;;34.53;17.67;;;3.20;99.90;;;;;;5021188;28;20436;-54
2023/12/15 05:41:55;;;;;;;29.58;15.35;;;3.20;99.90;;;;;;5013595;28;20087;-57
2023/12/15 05:44:20;;;;;;;31.67;16.48;;;3.20;99.90;;;;;;5018733;28;20402;-53
2023/12/15 05:46:46;;;;;;;34.63;15.93;;;3.20;99.90;;;;;;5019513;28;20084;-54
2023/12/15 05:49:11;;;;;;;29.10;16.48;;;3.10;99.90;;;;;;5016724;28;20080;-56
2023/12/15 05:51:38;;;;;;;27.75;15.18;;;3.20;99.90;;;;;;5018812;28;20128;-53
2023/12/15 05:54:04;;;;;;;32.30;16.35;;;3.20;99.90;;;;;;5014374;28;20068;-53
2023/12/15 05:56:29;;;;;;;27.00;15.65;;;3.20;99.90;;;;;;5020297;28;20347;-54
2023/12/15 05:58:58;;;;;;;28.30;13.93;;;3.20;99.90;;;;;;5014277;28;20037;-52
2023/12/15 06:01:23;;;;;;;29.77;14.95;;;3.30;99.90;;;;;;5020973;28;20116;-54
2023/12/15 06:03:49;;;;;;;29.25;15.32;;;3.20;99.90;;;;;;5017011;28;20255;-49
2023/12/15 06:06:15;;;;;;;30.50;15.80;;;3.20;99.90;;;;;;5016305;28;20057;-53
2023/12/15 06:08:40;;;;;;;30.08;16.27;;;3.20;99.90;;;;;;5019950;28;20033;-52
2023/12/15 06:11:06;;;;;;;30.70;16.13;;;3.30;99.90;;;;;;5017016;28;20553;-52
2023/12/15 06:13:32;;;;;;;29.75;15.32;;;3.30;99.90;;;;;;5017231;28;20026;-51
2023/12/15 06:15:57;;;;;;;31.33;15.38;;;3.30;99.90;;;;;;5013748;28;20022;-52
2023/12/15 06:18:23;;;;;;;28.20;14.93;;;3.30;99.90;;;;;;5018481;28;20049;-56
2023/12/15 06:20:48;;;;;;;31.58;16.58;;;3.30;99.90;;;;;;5017353;28;20032;-55
2023/12/15 06:23:14;;;;;;;35.58;17.58;;;3.40;99.90;;;;;;5017751;28;20045;-57
2023/12/15 06:25:40;;;;;;;34.05;17.23;;;3.40;99.90;;;;;;5015712;28;20026;-54
2023/12/15 06:28:09;;;;;;;30.00;16.10;;;3.40;99.90;;;;;;5018316;28;20040;-58
2023/12/15 06:30:36;;;;;;;38.15;17.55;;;3.40;99.90;;;;;;5014985;28;20029;-52
2023/12/15 06:33:02;;;;;;;34.25;17.05;;;3.40;99.90;;;;;;5014555;28;20025;-54
2023/12/15 06:35:28;;;;;;;34.75;17.20;;;3.40;99.90;;;;;;5019622;28;20061;-53
2023/12/15 06:37:53;;;;;;;35.75;18.20;;;3.40;99.90;;;;;;5016005;28;20611;-52
2023/12/15 06:40:19;;;;;;;48.38;23.50;;;3.50;99.90;;;;;;5019689;28;20529;-56
2023/12/15 06:42:44;;;;;;;39.67;19.35;;;3.50;99.90;;;;;;5017825;28;20036;-51
2023/12/15 06:45:10;;;;;;;38.47;18.63;;;3.50;99.90;;;;;;5016876;28;20104;-53
2023/12/15 06:47:39;;;;;;;33.03;17.20;;;3.50;99.90;;;;;;5016271;28;20072;-53
2023/12/15 06:50:05;;;;;;;31.83;17.88;;;3.40;99.90;;;;;;5015867;28;20034;-55
2023/12/15 06:52:34;;;;;;;39.83;19.55;;;3.50;99.90;;;;;;5014833;28;20528;-51
2023/12/15 06:55:00;;;;;;;41.47;17.25;;;3.50;99.90;;;;;;5014222;28;20026;-51
2023/12/15 06:57:26;;;;;;;42.40;18.25;;;3.50;99.90;;;;;;5014161;28;20108;-51
2023/12/15 06:59:51;;;;;;;39.10;19.38;;;3.50;99.90;;;;;;5015101;28;20108;-54
2023/12/15 07:02:17;;;;;;;39.63;19.73;;;3.50;99.90;;;;;;5013921;28;20064;-54
2023/12/15 07:04:43;;;;;;;40.30;18.08;;;3.60;99.90;;;;;;5016192;28;20021;-53
2023/12/15 07:07:09;;;;;;;35.75;18.75;;;3.60;99.90;;;;;;5015636;28;20668;-52
2023/12/15 07:09:35;;;;;;;43.80;20.08;;;3.60;99.90;;;;;;5015653;28;20026;-52
2023/12/15 07:12:01;;;;;;;36.67;16.83;;;3.60;99.90;;;;;;5017219;28;20097;-56
2023/12/15 07:14:26;;;;;;;40.90;19.17;;;3.60;99.90;;;;;;5016181;28;20529;-55
2023/12/15 07:16:52;;;;;;;40.75;18.42;;;3.60;99.90;;;;;;5014571;28;20029;-53
2023/12/15 07:19:17;;;;;;;48.25;20.58;;;3.60;99.90;;;;;;5014912;28;20029;-49
2023/12/15 07:21:43;;;;;;;36.33;17.40;;;3.60;99.90;;;;;;5015635;28;20102;-53
2023/12/15 07:24:08;;;;;;;39.88;16.63;;;3.60;99.90;;;;;;5015468;28;20097;-52
2023/12/15 07:26:34;;;;;;;38.50;19.05;;;3.60;99.90;;;;;;5014837;28;20097;-49
2023/12/15 07:28:59;;;;;;;37.35;17.27;;;3.60;99.90;;;;;;5017301;28;20032;-52
2023/12/15 07:31:25;;;;;;;37.67;19.10;;;3.70;99.90;;;;;;5011122;28;20113;-51
2023/12/15 07:33:50;;;;;;;34.08;16.88;;;3.70;99.90;;;;;;5015220;28;20908;-48
2023/12/15 07:36:16;;;;;;;36.55;17.75;;;3.70;99.90;;;;;;5015963;28;20026;-50
2023/12/15 07:38:42;;;;;;;39.22;16.80;;;3.70;99.90;;;;;;5017789;28;20030;-55
2023/12/15 07:41:08;;;;;;;37.15;17.55;;;3.70;99.90;;;;;;5018344;28;20037;-55
2023/12/15 07:43:34;;;;;;;37.38;17.83;;;3.70;99.90;;;;;;5014917;28;20040;-50
2023/12/15 07:45:59;;;;;;;38.10;17.98;;;3.80;99.90;;;;;;5020631;28;20029;-47
2023/12/15 07:48:25;;;;;;;40.13;19.42;;;3.80;99.90;;;;;;5019123;28;20075;-51
2023/12/15 07:50:51;;;;;;;43.13;19.23;;;3.80;99.90;;;;;;5023256;28;20029;-47
2023/12/15 07:53:17;;;;;;;35.85;17.05;;;3.80;99.90;;;;;;5022519;28;20472;-49
2023/12/15 07:55:42;;;;;;;43.13;18.58;;;3.80;99.90;;;;;;5020208;28;20036;-47
2023/12/15 07:58:11;;;;;;;42.83;18.90;;;3.90;99.90;;;;;;5019945;28;20109;-51
2023/12/15 08:00:37;;;;;;;40.35;19.80;;;3.90;99.90;;;;;;5017699;28;20527;-53
2023/12/15 08:03:03;;;;;;;42.58;20.42;;;3.80;99.90;;;;;;5021299;28;20021;-49
2023/12/15 08:05:29;;;;;;;45.85;17.20;;;3.90;99.90;;;;;;5015948;28;20025;-48
2023/12/15 08:07:54;;;;;;;44.08;18.63;;;3.90;99.90;;;;;;5020851;28;20076;-52
2023/12/15 08:10:20;;;;;;;43.15;19.00;;;3.90;99.90;;;;;;5019944;28;20034;-52
2023/12/15 08:12:45;;;;;;;47.88;18.55;;;3.90;99.90;;;;;;5020560;28;20017;-51
2023/12/15 08:15:11;;;;;;;37.75;18.88;;;4.00;99.90;;;;;;5021095;28;20121;-47
2023/12/15 08:17:37;;;;;;;47.63;19.00;;;4.00;99.90;;;;;;5019307;28;20117;-50
2023/12/15 08:20:02;;;;;;;38.03;19.08;;;4.00;99.90;;;;;;5016931;28;20572;-54
2023/12/15 08:22:28;;;;;;;40.35;19.58;;;4.00;99.90;;;;;;5017177;28;20501;-56
2023/12/15 08:24:54;;;;;;;53.97;27.88;;;4.00;99.90;;;;;;5018675;28;20520;-50
2023/12/15 08:27:20;;;;;;;71.05;32.13;;;4.00;99.90;;;;;;5021806;28;20059;-48
2023/12/15 08:29:46;;;;;;;65.75;32.28;;;4.10;99.90;;;;;;5017496;28;20045;-50
2023/12/15 08:32:11;;;;;;;40.97;20.45;;;4.10;99.90;;;;;;5020288;28;20034;-52
2023/12/15 08:34:38;;;;;;;38.45;18.40;;;4.10;99.90;;;;;;5021713;28;20021;-50
2023/12/15 08:37:03;;;;;;;42.13;18.48;;;4.10;99.90;;;;;;5016473;28;20490;-47
2023/12/15 08:39:29;;;;;;;46.70;20.90;;;4.20;99.90;;;;;;5019602;28;20023;-50
2023/12/15 08:41:54;;;;;;;49.80;20.67;;;4.30;99.90;;;;;;5014224;28;20370;-56
2023/12/15 08:44:20;;;;;;;42.92;17.02;;;4.30;99.90;;;;;;5016523;28;20034;-54
2023/12/15 08:46:45;;;;;;;43.10;17.27;;;4.30;99.90;;;;;;5019646;28;20457;-48
2023/12/15 08:49:11;;;;;;;43.95;17.90;;;4.30;99.90;;;;;;5018027;28;20545;-54
2023/12/15 08:51:36;;;;;;;47.03;17.48;;;4.40;99.90;;;;;;5017252;28;20524;-52
2023/12/15 08:54:02;;;;;;;47.75;17.95;;;4.40;99.90;;;;;;5018252;28;20087;-52
2023/12/15 08:56:27;;;;;;;41.15;18.35;;;4.40;99.90;;;;;;5018986;28;20079;-56
2023/12/15 08:58:53;;;;;;;32.97;15.25;;;4.40;99.90;;;;;;5015280;28;20025;-55
2023/12/15 09:01:18;;;;;;;39.10;17.20;;;4.50;99.90;;;;;;5019976;28;20048;-50
2023/12/15 09:03:44;;;;;;;35.70;16.52;;;4.50;99.90;;;;;;5015611;28;20064;-51
2023/12/15 09:06:11;;;;;;;39.03;16.67;;;4.50;99.90;;;;;;5017440;28;20033;-52
2023/12/15 09:08:37;;;;;;;42.05;16.73;;;4.60;99.90;;;;;;5017996;28;20477;-53
2023/12/15 09:11:04;;;;;;;40.80;17.75;;;4.60;99.90;;;;;;5015706;28;20030;-51
2023/12/15 09:13:29;;;;;;;41.70;18.17;;;4.70;99.90;;;;;;5019047;28;20018;-55
2023/12/15 09:15:55;;;;;;;43.85;17.95;;;4.70;99.90;;;;;;5017170;28;20032;-51
2023/12/15 09:18:20;;;;;;;37.35;15.77;;;4.70;99.90;;;;;;5013430;28;20030;-56
2023/12/15 09:20:46;;;;;;;35.22;15.32;;;4.70;99.90;;;;;;5014739;28;20294;-52
2023/12/15 09:23:11;;;;;;;33.35;15.52;;;4.80;99.90;;;;;;5014571;28;20033;-56
2023/12/15 09:25:37;;;;;;;41.85;16.77;;;4.80;99.90;;;;;;5016836;28;20033;-56
2023/12/15 09:28:05;;;;;;;30.92;16.20;;;4.80;99.90;;;;;;5012893;28;20045;-52
2023/12/15 09:30:31;;;;;;;31.50;13.95;;;4.80;99.90;;;;;;5020329;28;20037;-57
2023/12/15 09:32:56;;;;;;;34.25;15.77;;;4.80;99.90;;;;;;5015103;28;20026;-52
2023/12/15 09:35:22;;;;;;;35.75;15.55;;;4.90;99.90;;;;;;5017472;28;20881;-56
2023/12/15 09:37:47;;;;;;;36.08;14.93;;;5.00;99.90;;;;;;5014625;28;20418;-55
2023/12/15 09:40:14;;;;;;;40.70;16.80;;;5.00;99.90;;;;;;5016987;28;20048;-55
2023/12/15 09:42:40;;;;;;;62.90;28.70;;;5.00;99.90;;;;;;5015820;28;20037;-53
2023/12/15 09:45:06;;;;;;;42.15;19.85;;;5.00;99.90;;;;;;5013480;28;20037;-53
2023/12/15 09:47:35;;;;;;;46.42;23.45;;;5.10;99.90;;;;;;5018272;28;20037;-51
2023/12/15 09:50:04;;;;;;;38.45;17.38;;;5.10;99.90;;;;;;5017690;28;20091;-48
2023/12/15 09:52:32;;;;;;;40.38;19.30;;;5.10;99.90;;;;;;5018540;28;20798;-53
2023/12/15 09:54:59;;;;;;;42.03;19.20;;;5.20;99.90;;;;;;5015547;28;20029;-53
2023/12/15 09:57:25;;;;;;;47.97;18.83;;;5.30;99.90;;;;;;5018342;28;20040;-50
2023/12/15 09:59:51;;;;;;;42.00;18.65;;;5.30;99.90;;;;;;5015803;28;20083;-49
2023/12/15 10:02:16;;;;;;;48.90;20.13;;;5.30;99.90;;;;;;5014032;28;20460;-54
2023/12/15 10:04:42;;;;;;;46.13;18.67;;;5.40;99.90;;;;;;5020452;28;20037;-49
2023/12/15 10:07:07;;;;;;;47.55;25.00;;;5.40;99.90;;;;;;5016561;28;20109;-49
2023/12/15 10:09:38;;;;;;;58.22;28.83;;;5.40;99.90;;;;;;5018764;28;20505;-48
2023/12/15 10:12:08;;;;;;;61.17;26.73;;;5.50;99.90;;;;;;5016271;28;20477;-51
2023/12/15 10:14:38;;;;;;;41.03;18.88;;;5.50;99.90;;;;;;5018511;28;20030;-55
2023/12/15 10:17:11;;;;;;;48.38;18.40;;;5.50;99.90;;;;;;5018517;28;20050;-47
2023/12/15 10:19:37;;;;;;;35.25;17.65;;;5.60;99.90;;;;;;5015993;28;20040;-54
2023/12/15 10:22:04;;;;;;;48.65;18.20;;;5.60;99.90;;;;;;5015372;28;20045;-52
2023/12/15 10:24:32;;;;;;;49.95;18.42;;;5.70;99.90;;;;;;5015655;28;20104;-51
2023/12/15 10:26:59;;;;;;;47.28;18.15;;;5.70;99.90;;;;;;5014300;28;20494;-55
2023/12/15 10:29:25;;;;;;;49.22;18.30;;;5.80;99.90;;;;;;5017180;28;20021;-53
2023/12/15 10:31:53;;;;;;;45.15;18.67;;;5.80;99.90;;;;;;5012975;28;20040;-56
2023/12/15 10:34:26;;;;;;;36.35;16.42;;;5.80;99.90;;;;;;5018273;28;20033;-56
2023/12/15 10:36:52;;;;;;;45.80;16.70;;;5.80;99.90;;;;;;5014604;28;20084;-55
2023/12/15 10:39:19;;;;;;;34.97;14.73;;;5.90;99.90;;;;;;5019449;28;20037;-52
2023/12/15 10:41:46;;;;;;;44.55;17.98;;;5.90;99.90;;;;;;5015260;28;20060;-53
2023/12/15 10:44:12;;;;;;;45.15;17.33;;;5.90;99.90;;;;;;5015600;28;20040;-56
2023/12/15 10:46:42;;;;;;;45.25;16.15;;;6.00;99.90;;;;;;5017774;28;20030;-53
2023/12/15 10:49:09;;;;;;;37.88;17.08;;;6.00;99.90;;;;;;5019455;28;20030;-52
2023/12/15 10:51:38;;;;;;;38.40;16.65;;;6.00;99.90;;;;;;5014525;28;20038;-58
2023/12/15 10:54:05;;;;;;;47.65;17.65;;;6.00;99.90;;;;;;5014182;28;20058;-54
2023/12/15 10:56:31;;;;;;;34.25;14.82;;;6.00;99.90;;;;;;5017735;28;20699;-53
2023/12/15 10:59:00;;;;;;;40.38;16.05;;;6.10;99.90;;;;;;5014281;28;20022;-54
2023/12/15 11:01:29;;;;;;;45.75;17.73;;;6.10;99.90;;;;;;5015489;28;20402;-49
2023/12/15 11:03:54;;;;;;;41.97;16.23;;;6.10;99.90;;;;;;5016282;28;20036;-49
2023/12/15 11:06:27;;;;;;;37.63;17.17;;;6.20;99.90;;;;;;5016611;28;20038;-53
2023/12/15 11:08:59;;;;;;;39.50;15.95;;;6.20;99.90;;;;;;5014480;28;20712;-52
2023/12/15 11:11:25;;;;;;;36.97;15.45;;;6.20;99.90;;;;;;5016366;28;20099;-50
2023/12/15 11:13:58;;;;;;;33.50;15.52;;;6.30;99.90;;;;;;5015554;28;20033;-53
2023/12/15 11:16:26;;;;;;;31.92;15.18;;;6.30;99.90;;;;;;5015155;28;20034;-51
2023/12/15 11:18:54;;;;;;;30.52;15.50;;;6.30;99.90;;;;;;5018598;28;20038;-50
2023/12/15 11:21:20;;;;;;;33.58;13.48;;;6.30;99.90;;;;;;5019359;28;20072;-52
2023/12/15 11:23:50;;;;;;;27.83;13.93;;;6.30;99.90;;;;;;5019336;28;20903;-51
2023/12/15 11:26:34;;;;;;;32.00;14.43;;;6.40;99.90;;;;;;5018964;28;20476;-53
2023/12/15 11:29:12;;;;;;;36.42;15.45;;;6.50;99.90;;;;;;5015479;28;20026;-55
2023/12/15 11:31:40;;;;;;;28.95;12.30;;;6.50;99.90;;;;;;5015615;28;20124;-52
2023/12/15 11:34:07;;;;;;;34.50;14.10;;;6.50;99.90;;;;;;5021336;28;20056;-53
2023/12/15 11:36:41;;;;;;;28.95;13.68;;;6.50;99.90;;;;;;5017502;28;20060;-52
2023/12/15 11:39:11;;;;;;;31.88;12.95;;;6.60;99.90;;;;;;5021379;28;20044;-55
2023/12/15 11:41:41;;;;;;;35.33;13.25;;;6.60;99.90;;;;;;5019998;28;20108;-54
2023/12/15 11:44:07;;;;;;;33.83;14.13;;;6.70;99.90;;;;;;5023690;28;20075;-50
2023/12/15 11:46:33;;;;;;;34.42;14.23;;;6.70;99.90;;;;;;5022122;28;20033;-54
2023/12/15 11:49:00;;;;;;;34.45;13.02;;;6.70;99.90;;;;;;5019247;28;20465;-49
2023/12/15 11:51:28;;;;;;;34.00;12.05;;;6.80;99.90;;;;;;5015355;28;20030;-53
2023/12/15 11:53:55;;;;;;;30.25;12.75;;;6.80;99.90;;;;;;5018499;28;20113;-53
2023/12/15 11:56:20;;;;;;;25.90;12.63;;;6.80;99.90;;;;;;5018649;28;20596;-52
2023/12/15 11:58:46;;;;;;;28.30;13.00;;;6.80;99.90;;;;;;5020522;28;20033;-52
2023/12/15 12:01:14;;;;;;;35.60;13.02;;;6.80;99.90;;;;;;5015935;28;20037;-53
2023/12/15 12:03:40;;;;;;;34.22;13.05;;;6.80;99.90;;;;;;5019562;28;20128;-50
2023/12/15 12:06:08;;;;;;;45.95;20.15;;;6.90;99.90;;;;;;5018393;28;20455;-50
2023/12/15 12:08:34;;;;;;;64.93;25.00;;;6.90;99.90;;;;;;5019432;28;20160;-52
2023/12/15 12:11:00;;;;;;;49.47;22.42;;;6.90;99.90;;;;;;5016388;28;20028;-52
2023/12/15 12:13:37;;;;;;;51.85;20.98;;;6.90;99.90;;;;;;5018589;28;20037;-52
2023/12/15 12:16:03;;;;;;;38.58;20.38;;;6.90;99.90;;;;;;5016518;28;20033;-57
2023/12/15 12:18:30;;;;;;;39.70;19.38;;;7.00;99.90;;;;;;5017134;28;20033;-52
2023/12/15 12:21:00;;;;;;;30.38;14.57;;;7.00;99.90;;;;;;5015070;28;20110;-53
2023/12/15 12:23:29;;;;;;;35.15;17.65;;;7.00;99.90;;;;;;5016705;28;20394;-51
2023/12/15 12:25:56;;;;;;;36.97;15.85;;;7.00;99.90;;;;;;5015379;28;20059;-54
2023/12/15 12:28:22;;;;;;;32.50;16.05;;;7.00;99.90;;;;;;5020053;28;20080;-54
2023/12/15 12:30:48;;;;;;;29.67;13.32;;;7.00;99.90;;;;;;5015525;28;20501;-55
2023/12/15 12:33:14;;;;;;;32.90;14.35;;;7.00;99.90;;;;;;5019023;28;20112;-56